Time,TemperatureF,DewpointF,PressureIn,WindDirection,WindDirectionDegrees,WindSpeedMPH,WindSpeedGustMPH,Humidity,HourlyPrecipIn,Conditions,Clouds,dailyrainin,SoftwareType,DateUTC
2013-08-07 00:04:00,70.9,64.4,30.08,SSW,203,4.0,7.0,80,0.00,,,0.00,Wunderground PWS Mod,2013-08-07 04:04:00,
2013-08-07 00:14:00,71.0,64.5,30.08,SSW,199,2.0,7.0,80,0.00,,,0.00,Wunderground PWS Mod,2013-08-07 04:14:00,
2013-08-07 00:18:00,70.9,64.4,30.08,SSW,199,1.0,7.0,80,0.00,,,0.00,Wunderground PWS Mod,2013-08-07 04:18:00,
2013-08-07 00:24:00,70.7,64.2,30.08,SSW,197,2.0,7.0,80,0.00,,,0.00,Wunderground PWS Mod,2013-08-07 04:24:00,
2013-08-07 00:26:00,70.6,64.1,30.08,SSW,197,1.0,7.0,80,0.00,,,0.00,Wunderground PWS Mod,2013-08-07 04:26:00,
2013-08-07 00:34:00,70.7,64.6,30.08,SSW,201,1.0,7.0,81,0.00,,,0.00,Wunderground PWS Mod,2013-08-07 04:34:00,
2013-08-07 00:44:00,71.3,64.4,30.07,SSW,201,2.0,7.0,79,0.00,,,0.00,Wunderground PWS Mod,2013-08-07 04:44:00,
2013-08-07 00:48:00,71.8,64.2,30.08,SSW,203,1.0,3.0,77,0.00,,,0.00,Wunderground PWS Mod,2013-08-07 04:48:00,
2013-08-07 00:54:00,72.9,65.3,30.08,SSW,201,0.0,7.0,77,0.00,,,0.00,Wunderground PWS Mod,2013-08-07 04:54:00,
2013-08-07 01:04:00,72.5,64.9,30.08,SSW,201,1.0,5.0,77,0.00,,,0.00,Wunderground PWS Mod,2013-08-07 05:04:00,
2013-08-07 01:10:00,71.8,64.2,30.08,SSW,203,1.0,3.0,77,0.00,,,0.00,Wunderground PWS Mod,2013-08-07 05:10:00,
2013-08-07 01:12:00,71.8,64.2,30.08,SSW,203,1.0,3.0,77,0.00,,,0.00,Wunderground PWS Mod,2013-08-07 05:12:00,
2013-08-07 01:14:00,72.6,65.0,30.08,SSW,201,0.0,5.0,77,0.00,,,0.00,Wunderground PWS Mod,2013-08-07 05:14:00,
2013-08-07 01:24:00,72.6,65.0,30.08,SSW,201,0.0,5.0,77,0.00,,,0.00,Wunderground PWS Mod,2013-08-07 05:24:00,
2013-08-07 01:34:00,72.5,65.2,30.08,SSW,201,1.0,5.0,78,0.00,,,0.00,Wunderground PWS Mod,2013-08-07 05:34:00,
2013-08-07 01:44:00,71.6,64.7,30.08,SE,128,1.0,5.0,79,0.00,,,0.00,Wunderground PWS Mod,2013-08-07 05:44:00,
2013-08-07 01:50:00,71.6,65.5,30.07,SE,135,2.0,4.0,81,0.00,,,0.00,Wunderground PWS Mod,2013-08-07 05:50:00,
2013-08-07 01:52:00,71.6,65.5,30.07,SE,135,2.0,4.0,81,0.00,,,0.00,Wunderground PWS Mod,2013-08-07 05:52:00,
2013-08-07 01:54:00,70.9,64.4,30.07,SE,128,4.0,5.0,80,0.00,,,0.00,Wunderground PWS Mod,2013-08-07 05:54:00,
2013-08-07 02:04:00,70.4,64.3,30.08,SE,129,1.0,3.0,81,0.00,,,0.00,Wunderground PWS Mod,2013-08-07 06:04:00,
2013-08-07 02:10:00,71.6,65.5,30.07,SE,135,2.0,4.0,81,0.00,,,0.00,Wunderground PWS Mod,2013-08-07 06:10:00,
2013-08-07 02:12:00,71.6,65.5,30.07,SE,135,2.0,4.0,81,0.00,,,0.00,Wunderground PWS Mod,2013-08-07 06:12:00,
2013-08-07 02:14:00,71.4,64.9,30.07,SE,129,1.0,4.0,80,0.00,,,0.00,Wunderground PWS Mod,2013-08-07 06:14:00,
2013-08-07 02:24:00,70.9,64.4,30.07,SE,129,2.0,4.0,80,0.00,,,0.00,Wunderground PWS Mod,2013-08-07 06:24:00,
2013-08-07 02:34:00,70.3,64.5,30.07,SE,144,4.0,4.0,82,0.00,,,0.00,Wunderground PWS Mod,2013-08-07 06:34:00,
2013-08-07 02:44:00,70.4,64.6,30.07,SE,135,2.0,4.0,82,0.00,,,0.00,Wunderground PWS Mod,2013-08-07 06:44:00,
2013-08-07 02:48:00,70.5,64.7,30.07,SE,135,2.0,5.0,82,0.00,,,0.00,Wunderground PWS Mod,2013-08-07 06:48:00,
2013-08-07 02:54:00,70.8,65.0,30.07,SE,135,2.0,4.0,82,0.00,,,0.00,Wunderground PWS Mod,2013-08-07 06:54:00,
2013-08-07 03:04:00,70.6,64.8,30.07,SE,135,4.0,4.0,82,0.00,,,0.00,Wunderground PWS Mod,2013-08-07 07:04:00,
2013-08-07 03:14:00,70.4,65.0,30.07,South,178,2.0,5.0,83,0.00,,,0.00,Wunderground PWS Mod,2013-08-07 07:14:00,
2013-08-07 03:16:00,70.6,64.8,30.07,SE,135,2.0,5.0,82,0.00,,,0.00,Wunderground PWS Mod,2013-08-07 07:16:00,
2013-08-07 03:24:00,70.8,65.0,30.07,SSW,192,4.0,5.0,82,0.00,,,0.00,Wunderground PWS Mod,2013-08-07 07:24:00,
2013-08-07 03:34:00,70.6,64.8,30.07,SSE,162,2.0,5.0,82,0.00,,,0.00,Wunderground PWS Mod,2013-08-07 07:34:00,
2013-08-07 03:44:00,71.0,65.2,30.07,SSE,155,1.0,5.0,82,0.00,,,0.00,Wunderground PWS Mod,2013-08-07 07:44:00,
2013-08-07 03:50:00,71.1,65.0,30.07,SSE,158,2.0,5.0,81,0.00,,,0.00,Wunderground PWS Mod,2013-08-07 07:50:00,
2013-08-07 03:52:00,71.1,65.0,30.07,SSE,158,2.0,5.0,81,0.00,,,0.00,Wunderground PWS Mod,2013-08-07 07:52:00,
2013-08-07 03:54:00,71.5,65.4,30.07,SSE,159,2.0,5.0,81,0.00,,,0.00,Wunderground PWS Mod,2013-08-07 07:54:00,
2013-08-07 04:04:00,71.2,65.1,30.07,SE,143,3.0,5.0,81,0.00,,,0.00,Wunderground PWS Mod,2013-08-07 08:04:00,
2013-08-07 04:14:00,70.8,65.0,30.07,SSW,196,1.0,5.0,82,0.00,,,0.00,Wunderground PWS Mod,2013-08-07 08:14:00,
2013-08-07 04:18:00,71.0,65.2,30.07,SSW,203,2.0,5.0,82,0.00,,,0.00,Wunderground PWS Mod,2013-08-07 08:18:00,
2013-08-07 04:24:00,71.1,65.3,30.07,South,176,1.0,5.0,82,0.00,,,0.00,Wunderground PWS Mod,2013-08-07 08:24:00,
2013-08-07 04:34:00,71.0,65.6,30.07,SE,142,1.0,5.0,83,0.00,,,0.00,Wunderground PWS Mod,2013-08-07 08:34:00,
2013-08-07 04:44:00,71.0,65.2,30.07,SSE,148,5.0,5.0,82,0.00,,,0.00,Wunderground PWS Mod,2013-08-07 08:44:00,
2013-08-07 04:46:00,71.0,65.2,30.07,SSW,203,2.0,5.0,82,0.00,,,0.00,Wunderground PWS Mod,2013-08-07 08:46:00,
2013-08-07 04:54:00,70.6,65.2,30.07,SE,141,2.0,5.0,83,0.00,,,0.00,Wunderground PWS Mod,2013-08-07 08:54:00,
2013-08-07 05:04:00,71.1,65.7,30.07,SE,145,2.0,5.0,83,0.00,,,0.00,Wunderground PWS Mod,2013-08-07 09:04:00,
2013-08-07 05:14:00,71.3,65.9,30.07,SSW,206,1.0,7.0,83,0.00,,,0.00,Wunderground PWS Mod,2013-08-07 09:14:00,
2013-08-07 05:20:00,71.1,65.7,30.07,SE,135,2.0,6.0,83,0.00,,,0.00,Wunderground PWS Mod,2013-08-07 09:20:00,
2013-08-07 05:22:00,71.1,65.7,30.07,SE,135,2.0,6.0,83,0.00,,,0.00,Wunderground PWS Mod,2013-08-07 09:22:00,
2013-08-07 05:24:00,71.1,65.3,30.07,SE,129,1.0,7.0,82,0.00,,,0.00,Wunderground PWS Mod,2013-08-07 09:24:00,
2013-08-07 05:34:00,70.8,65.4,30.07,SE,136,1.0,7.0,83,0.00,,,0.00,Wunderground PWS Mod,2013-08-07 09:34:00,
2013-08-07 05:44:00,70.7,65.3,30.07,SE,134,0.0,7.0,83,0.00,,,0.00,Wunderground PWS Mod,2013-08-07 09:44:00,
2013-08-07 05:50:00,71.0,65.2,30.07,SE,135,2.0,5.0,82,0.00,,,0.00,Wunderground PWS Mod,2013-08-07 09:50:00,
2013-08-07 05:52:00,71.0,65.2,30.07,SE,135,2.0,5.0,82,0.00,,,0.00,Wunderground PWS Mod,2013-08-07 09:52:00,
2013-08-07 05:54:00,71.4,66.0,30.07,SE,138,1.0,7.0,83,0.00,,,0.00,Wunderground PWS Mod,2013-08-07 09:54:00,
2013-08-07 06:04:00,71.5,65.7,30.07,SE,139,1.0,6.0,82,0.00,,,0.00,Wunderground PWS Mod,2013-08-07 10:04:00,
2013-08-07 06:14:00,71.9,66.1,30.07,SE,134,2.0,6.0,82,0.00,,,0.00,Wunderground PWS Mod,2013-08-07 10:14:00,
2013-08-07 06:16:00,71.0,65.2,30.07,SE,135,2.0,5.0,82,0.00,,,0.00,Wunderground PWS Mod,2013-08-07 10:16:00,
2013-08-07 06:24:00,71.4,65.6,30.07,SE,142,1.0,6.0,82,0.00,,,0.00,Wunderground PWS Mod,2013-08-07 10:24:00,
2013-08-07 06:34:00,71.1,65.7,30.07,SE,139,2.0,6.0,83,0.00,,,0.00,Wunderground PWS Mod,2013-08-07 10:34:00,
2013-08-07 06:44:00,71.1,66.0,30.07,SE,138,0.0,6.0,84,0.00,,,0.00,Wunderground PWS Mod,2013-08-07 10:44:00,
2013-08-07 06:48:00,71.5,65.7,30.07,SE,135,2.0,4.0,82,0.00,,,0.00,Wunderground PWS Mod,2013-08-07 10:48:00,
2013-08-07 06:54:00,71.9,66.8,30.08,SE,139,1.0,6.0,84,0.00,,,0.00,Wunderground PWS Mod,2013-08-07 10:54:00,
2013-08-07 07:04:00,71.7,65.9,30.08,SE,138,3.0,5.0,82,0.00,,,0.00,Wunderground PWS Mod,2013-08-07 11:04:00,
2013-08-07 07:14:00,71.2,65.8,30.07,SE,140,3.0,5.0,83,0.00,,,0.00,Wunderground PWS Mod,2013-08-07 11:14:00,
2013-08-07 07:18:00,71.2,66.1,30.07,SE,135,2.0,5.0,84,0.00,,,0.00,Wunderground PWS Mod,2013-08-07 11:18:00,
2013-08-07 07:24:00,71.0,65.9,30.07,SE,138,4.0,5.0,84,0.00,,,0.00,Wunderground PWS Mod,2013-08-07 11:24:00,
2013-08-07 07:34:00,71.5,66.1,30.08,SE,125,0.0,5.0,83,0.00,,,0.00,Wunderground PWS Mod,2013-08-07 11:34:00,
2013-08-07 07:44:00,72.5,66.7,30.07,SE,126,1.0,5.0,82,0.00,,,0.00,Wunderground PWS Mod,2013-08-07 11:44:00,
2013-08-07 07:46:00,71.2,66.1,30.07,SE,135,2.0,5.0,84,0.00,,,0.00,Wunderground PWS Mod,2013-08-07 11:46:00,
2013-08-07 07:54:00,72.9,66.4,30.07,ESE,122,2.0,5.0,80,0.00,,,0.00,Wunderground PWS Mod,2013-08-07 11:54:00,
2013-08-07 08:04:00,72.2,66.0,30.07,SE,134,1.0,5.0,81,0.00,,,0.00,Wunderground PWS Mod,2013-08-07 12:04:00,
2013-08-07 08:14:00,72.1,65.9,30.07,SSE,147,3.0,6.0,81,0.00,,,0.00,Wunderground PWS Mod,2013-08-07 12:14:00,
2013-08-07 08:16:00,72.3,66.1,30.07,SE,135,1.0,6.0,81,0.00,,,0.00,Wunderground PWS Mod,2013-08-07 12:16:00,
2013-08-07 08:24:00,71.4,65.6,30.07,ESE,122,4.0,6.0,82,0.00,,,0.00,Wunderground PWS Mod,2013-08-07 12:24:00,
2013-08-07 08:34:00,71.2,65.8,30.07,SE,137,7.0,7.0,83,0.00,,,0.00,Wunderground PWS Mod,2013-08-07 12:34:00,
2013-08-07 08:44:00,71.3,65.9,30.07,SSE,153,3.0,9.0,83,0.00,,,0.00,Wunderground PWS Mod,2013-08-07 12:44:00,
2013-08-07 08:50:00,71.4,65.6,30.07,SE,135,5.0,12.0,82,0.00,,,0.00,Wunderground PWS Mod,2013-08-07 12:50:00,
2013-08-07 08:52:00,71.4,65.6,30.07,SE,135,5.0,12.0,82,0.00,,,0.00,Wunderground PWS Mod,2013-08-07 12:52:00,
2013-08-07 08:54:00,71.6,66.2,30.07,SE,134,6.0,9.0,83,0.00,,,0.00,Wunderground PWS Mod,2013-08-07 12:54:00,
2013-08-07 09:04:00,71.7,65.9,30.07,SE,145,3.0,9.0,82,0.00,,,0.00,Wunderground PWS Mod,2013-08-07 13:04:00,
2013-08-07 09:10:00,71.4,65.6,30.07,SE,135,5.0,12.0,82,0.00,,,0.00,Wunderground PWS Mod,2013-08-07 13:10:00,
2013-08-07 09:12:00,71.4,65.6,30.07,SE,135,5.0,12.0,82,0.00,,,0.00,Wunderground PWS Mod,2013-08-07 13:12:00,
2013-08-07 09:14:00,71.7,65.9,30.07,SE,140,4.0,12.0,82,0.00,,,0.00,Wunderground PWS Mod,2013-08-07 13:14:00,
2013-08-07 09:24:00,72.0,66.2,30.07,SE,145,5.0,12.0,82,0.00,,,0.00,Wunderground PWS Mod,2013-08-07 13:24:00,
2013-08-07 09:34:00,72.3,66.5,30.07,SE,130,5.0,12.0,82,0.00,,,0.00,Wunderground PWS Mod,2013-08-07 13:34:00,
2013-08-07 09:44:00,72.9,66.7,30.07,SE,127,3.0,12.0,81,0.00,,,0.00,Wunderground PWS Mod,2013-08-07 13:44:00,
2013-08-07 09:46:00,71.8,66.0,30.07,SE,135,4.0,9.0,82,0.00,,,0.00,Wunderground PWS Mod,2013-08-07 13:46:00,
2013-08-07 09:54:00,73.7,66.8,30.07,SSE,154,4.0,12.0,79,0.00,,,0.00,Wunderground PWS Mod,2013-08-07 13:54:00,
2013-08-07 10:04:00,73.4,66.9,30.07,SSW,201,2.0,9.0,80,0.00,,,0.00,Wunderground PWS Mod,2013-08-07 14:04:00,
2013-08-07 10:10:00,73.1,66.2,30.07,SE,135,4.0,8.0,79,0.00,,,0.00,Wunderground PWS Mod,2013-08-07 14:10:00,
2013-08-07 10:12:00,73.1,66.2,30.07,SE,135,4.0,8.0,79,0.00,,,0.00,Wunderground PWS Mod,2013-08-07 14:12:00,
2013-08-07 10:14:00,73.8,66.9,30.07,South,187,2.0,9.0,79,0.00,,,0.00,Wunderground PWS Mod,2013-08-07 14:14:00,
2013-08-07 10:24:00,74.0,66.3,30.08,SSE,168,3.0,9.0,77,0.00,,,0.00,Wunderground PWS Mod,2013-08-07 14:24:00,
2013-08-07 10:34:00,74.3,66.2,30.08,SW,214,1.0,9.0,76,0.00,,,0.00,Wunderground PWS Mod,2013-08-07 14:34:00,
2013-08-07 10:44:00,74.5,66.1,30.08,South,178,4.0,9.0,75,0.00,,,0.00,Wunderground PWS Mod,2013-08-07 14:44:00,
2013-08-07 10:50:00,75.0,66.1,30.08,SSW,203,3.0,10.0,74,0.00,,,0.00,Wunderground PWS Mod,2013-08-07 14:50:00,
2013-08-07 10:52:00,75.0,66.1,30.08,SSW,203,3.0,10.0,74,0.00,,,0.00,Wunderground PWS Mod,2013-08-07 14:52:00,
2013-08-07 10:54:00,75.7,66.8,30.08,South,190,4.0,9.0,74,0.00,,,0.00,Wunderground PWS Mod,2013-08-07 14:54:00,
2013-08-07 11:04:00,75.2,66.3,30.08,SSW,205,3.0,9.0,74,0.00,,,0.00,Wunderground PWS Mod,2013-08-07 15:04:00,
2013-08-07 11:10:00,75.0,66.1,30.08,SSW,203,3.0,10.0,74,0.00,,,0.00,Wunderground PWS Mod,2013-08-07 15:10:00,
2013-08-07 11:12:00,75.0,66.1,30.08,SSW,203,3.0,10.0,74,0.00,,,0.00,Wunderground PWS Mod,2013-08-07 15:12:00,
2013-08-07 11:14:00,75.3,66.8,30.08,SSW,208,3.0,10.0,75,0.00,,,0.00,Wunderground PWS Mod,2013-08-07 15:14:00,
2013-08-07 11:24:00,74.9,66.1,30.08,SSW,198,2.0,10.0,74,0.00,,,0.00,Wunderground PWS Mod,2013-08-07 15:24:00,
2013-08-07 11:34:00,74.5,66.4,30.07,SW,224,7.0,10.0,76,0.00,,,0.00,Wunderground PWS Mod,2013-08-07 15:34:00,
2013-08-07 11:44:00,75.4,66.9,30.08,SSE,147,6.0,10.0,75,0.00,,,0.00,Wunderground PWS Mod,2013-08-07 15:44:00,
2013-08-07 11:46:00,75.0,66.1,30.08,SSW,203,4.0,9.0,74,0.00,,,0.00,Wunderground PWS Mod,2013-08-07 15:46:00,
2013-08-07 11:54:00,75.0,66.9,30.07,SSW,204,4.0,10.0,76,0.00,,,0.00,Wunderground PWS Mod,2013-08-07 15:54:00,
2013-08-07 12:04:00,76.0,67.1,30.08,SW,236,4.0,7.0,74,0.00,,,0.00,Wunderground PWS Mod,2013-08-07 16:04:00,
2013-08-07 12:14:00,77.1,67.4,30.08,SSW,201,3.0,9.0,72,0.00,,,0.00,Wunderground PWS Mod,2013-08-07 16:14:00,
2013-08-07 12:18:00,77.2,66.7,30.07,SSW,203,2.0,6.0,70,0.00,,,0.00,Wunderground PWS Mod,2013-08-07 16:18:00,
2013-08-07 12:24:00,77.7,67.1,30.07,SW,222,2.0,9.0,70,0.00,,,0.00,Wunderground PWS Mod,2013-08-07 16:24:00,
2013-08-07 12:34:00,77.5,67.4,30.07,South,187,3.0,9.0,71,0.00,,,0.00,Wunderground PWS Mod,2013-08-07 16:34:00,
2013-08-07 12:44:00,77.2,67.5,30.07,South,177,2.0,9.0,72,0.00,,,0.00,Wunderground PWS Mod,2013-08-07 16:44:00,
2013-08-07 12:48:00,77.5,66.9,30.07,South,180,3.0,8.0,70,0.00,,,0.00,Wunderground PWS Mod,2013-08-07 16:48:00,
2013-08-07 12:54:00,77.6,67.0,30.07,SSW,203,3.0,9.0,70,0.00,,,0.00,Wunderground PWS Mod,2013-08-07 16:54:00,
2013-08-07 13:04:00,77.6,67.0,30.07,South,186,4.0,6.0,70,0.00,,,0.00,Wunderground PWS Mod,2013-08-07 17:04:00,
2013-08-07 13:14:00,78.0,67.4,30.07,South,180,4.0,8.0,70,0.00,,,0.00,Wunderground PWS Mod,2013-08-07 17:14:00,
2013-08-07 13:16:00,77.5,66.9,30.07,South,180,3.0,8.0,70,0.00,,,0.00,Wunderground PWS Mod,2013-08-07 17:16:00,
2013-08-07 13:24:00,78.6,67.6,30.07,SSE,165,2.0,8.0,69,0.00,,,0.00,Wunderground PWS Mod,2013-08-07 17:24:00,
2013-08-07 13:34:00,78.7,65.5,30.06,SSE,149,8.0,8.0,64,0.00,,,0.00,Wunderground PWS Mod,2013-08-07 17:34:00,
2013-08-07 13:44:00,78.1,64.9,30.05,SSW,200,5.0,8.0,64,0.00,,,0.00,Wunderground PWS Mod,2013-08-07 17:44:00,
2013-08-07 13:46:00,78.2,65.0,30.06,SE,135,3.0,7.0,64,0.00,,,0.00,Wunderground PWS Mod,2013-08-07 17:46:00,
2013-08-07 13:54:00,79.1,65.9,30.05,ESE,123,8.0,8.0,64,0.00,,,0.00,Wunderground PWS Mod,2013-08-07 17:54:00,
2013-08-07 14:04:00,77.9,66.1,30.05,ESE,119,3.0,7.0,67,0.00,,,0.00,Wunderground PWS Mod,2013-08-07 18:04:00,
2013-08-07 14:14:00,78.0,65.7,30.05,SE,132,5.0,14.0,66,0.00,,,0.00,Wunderground PWS Mod,2013-08-07 18:14:00,
2013-08-07 14:18:00,78.3,66.0,30.04,SE,135,4.0,11.0,66,0.00,,,0.00,Wunderground PWS Mod,2013-08-07 18:18:00,
2013-08-07 14:24:00,78.6,66.3,30.05,ESE,116,4.0,14.0,66,0.00,,,0.00,Wunderground PWS Mod,2013-08-07 18:24:00,
2013-08-07 14:34:00,78.4,66.1,30.05,SE,132,9.0,14.0,66,0.00,,,0.00,Wunderground PWS Mod,2013-08-07 18:34:00,
2013-08-07 14:44:00,78.1,66.7,30.04,SE,146,7.0,14.0,68,0.00,,,0.00,Wunderground PWS Mod,2013-08-07 18:44:00,
2013-08-07 14:48:00,78.3,64.7,30.04,SE,135,5.0,11.0,63,0.00,,,0.00,Wunderground PWS Mod,2013-08-07 18:48:00,
2013-08-07 14:54:00,78.1,67.1,30.05,SSE,159,2.0,14.0,69,0.00,,,0.00,Wunderground PWS Mod,2013-08-07 18:54:00,
2013-08-07 15:04:00,80.4,66.6,30.04,SSE,154,3.0,11.0,63,0.00,,,0.00,Wunderground PWS Mod,2013-08-07 19:04:00,
2013-08-07 15:14:00,79.4,66.2,30.04,South,189,4.0,11.0,64,0.00,,,0.00,Wunderground PWS Mod,2013-08-07 19:14:00,
2013-08-07 15:16:00,78.3,64.7,30.04,SE,135,5.0,11.0,63,0.00,,,0.00,Wunderground PWS Mod,2013-08-07 19:16:00,
2013-08-07 15:24:00,79.6,66.8,30.03,South,180,1.0,11.0,65,0.00,,,0.00,Wunderground PWS Mod,2013-08-07 19:24:00,
2013-08-07 15:34:00,79.9,66.6,30.03,SSE,158,5.0,11.0,64,0.00,,,0.00,Wunderground PWS Mod,2013-08-07 19:34:00,
2013-08-07 15:44:00,80.0,67.2,30.03,SSW,201,4.0,11.0,65,0.00,,,0.00,Wunderground PWS Mod,2013-08-07 19:44:00,
2013-08-07 15:48:00,80.0,66.7,30.02,SE,135,6.0,13.0,64,0.00,,,0.00,Wunderground PWS Mod,2013-08-07 19:48:00,
2013-08-07 15:54:00,80.0,66.7,30.03,SE,130,5.0,11.0,64,0.00,,,0.00,Wunderground PWS Mod,2013-08-07 19:54:00,
2013-08-07 16:04:00,79.8,66.5,30.03,SE,130,7.0,10.0,64,0.00,,,0.00,Wunderground PWS Mod,2013-08-07 20:04:00,
2013-08-07 16:14:00,79.2,66.0,30.02,SE,125,8.0,13.0,64,0.00,,,0.00,Wunderground PWS Mod,2013-08-07 20:14:00,
2013-08-07 16:16:00,79.1,65.9,30.02,SE,133,7.0,13.0,64,0.00,,,0.00,Wunderground PWS Mod,2013-08-07 20:16:00,
2013-08-07 16:18:00,79.1,66.3,30.01,SE,135,6.0,14.0,65,0.00,,,0.00,Wunderground PWS Mod,2013-08-07 20:18:00,
2013-08-07 16:24:00,78.9,66.1,30.02,SE,137,6.0,13.0,65,0.00,,,0.00,Wunderground PWS Mod,2013-08-07 20:24:00,
2013-08-07 16:34:00,79.2,66.0,30.01,ESE,121,9.0,13.0,64,0.00,,,0.00,Wunderground PWS Mod,2013-08-07 20:34:00,
2013-08-07 16:44:00,79.8,66.1,30.02,SSW,196,6.0,14.0,63,0.00,,,0.00,Wunderground PWS Mod,2013-08-07 20:44:00,
2013-08-07 16:46:00,79.1,66.3,30.01,SE,135,6.0,14.0,65,0.00,,,0.00,Wunderground PWS Mod,2013-08-07 20:46:00,
2013-08-07 16:54:00,79.9,66.6,30.01,SE,145,4.0,14.0,64,0.00,,,0.00,Wunderground PWS Mod,2013-08-07 20:54:00,
2013-08-07 17:04:00,79.7,66.4,30.01,SSE,154,6.0,14.0,64,0.00,,,0.00,Wunderground PWS Mod,2013-08-07 21:04:00,
2013-08-07 17:14:00,79.8,66.5,30.01,South,185,6.0,14.0,64,0.00,,,0.00,Wunderground PWS Mod,2013-08-07 21:14:00,
2013-08-07 17:16:00,79.7,66.4,30.00,SE,135,6.0,14.0,64,0.00,,,0.00,Wunderground PWS Mod,2013-08-07 21:16:00,
2013-08-07 17:24:00,80.7,66.9,30.01,South,182,4.0,14.0,63,0.00,,,0.00,Wunderground PWS Mod,2013-08-07 21:24:00,
2013-08-07 17:34:00,80.7,66.9,30.01,SE,144,7.0,14.0,63,0.00,,,0.00,Wunderground PWS Mod,2013-08-07 21:34:00,
2013-08-07 17:44:00,81.0,66.8,30.02,South,178,3.0,14.0,62,0.00,,,0.00,Wunderground PWS Mod,2013-08-07 21:44:00,
2013-08-07 17:48:00,80.7,65.5,30.01,South,180,5.0,15.0,60,0.00,,,0.00,Wunderground PWS Mod,2013-08-07 21:48:00,
2013-08-07 17:54:00,80.5,65.8,30.02,South,185,6.0,14.0,61,0.00,,,0.00,Wunderground PWS Mod,2013-08-07 21:54:00,
2013-08-07 18:04:00,80.0,64.9,30.02,SSE,156,7.0,12.0,60,0.00,,,0.00,Wunderground PWS Mod,2013-08-07 22:04:00,
2013-08-07 18:14:00,79.8,65.2,30.01,SSW,194,5.0,15.0,61,0.00,,,0.00,Wunderground PWS Mod,2013-08-07 22:14:00,
2013-08-07 18:18:00,79.7,64.1,30.00,SSE,158,6.0,15.0,59,0.00,,,0.00,Wunderground PWS Mod,2013-08-07 22:18:00,
2013-08-07 18:24:00,79.6,65.0,30.00,SSE,167,6.0,15.0,61,0.00,,,0.00,Wunderground PWS Mod,2013-08-07 22:24:00,
2013-08-07 18:34:00,79.6,64.0,30.01,SSE,149,5.0,15.0,59,0.00,,,0.00,Wunderground PWS Mod,2013-08-07 22:34:00,
2013-08-07 18:44:00,79.2,63.6,30.01,SE,131,4.0,15.0,59,0.00,,,0.00,Wunderground PWS Mod,2013-08-07 22:44:00,
2013-08-07 18:46:00,79.7,64.1,30.00,SSE,158,6.0,15.0,59,0.00,,,0.00,Wunderground PWS Mod,2013-08-07 22:46:00,
2013-08-07 18:54:00,79.0,63.9,30.00,South,170,5.0,15.0,60,0.00,,,0.00,Wunderground PWS Mod,2013-08-07 22:54:00,
2013-08-07 19:04:00,79.0,63.9,30.00,SE,144,5.0,15.0,60,0.00,,,0.00,Wunderground PWS Mod,2013-08-07 23:04:00,
2013-08-07 19:14:00,78.9,64.3,30.00,SSE,166,3.0,15.0,61,0.00,,,0.00,Wunderground PWS Mod,2013-08-07 23:14:00,
2013-08-07 19:20:00,78.9,64.3,30.01,SSE,158,4.0,9.0,61,0.00,,,0.00,Wunderground PWS Mod,2013-08-07 23:20:00,
2013-08-07 19:22:00,78.9,64.3,30.01,SSE,158,4.0,9.0,61,0.00,,,0.00,Wunderground PWS Mod,2013-08-07 23:22:00,
2013-08-07 19:24:00,78.9,64.3,30.01,SE,142,5.0,15.0,61,0.00,,,0.00,Wunderground PWS Mod,2013-08-07 23:24:00,
2013-08-07 19:34:00,78.7,64.6,30.01,South,188,3.0,15.0,62,0.00,,,0.00,Wunderground PWS Mod,2013-08-07 23:34:00,
2013-08-07 19:44:00,78.4,64.8,30.01,South,185,4.0,15.0,63,0.00,,,0.00,Wunderground PWS Mod,2013-08-07 23:44:00,
2013-08-07 19:46:00,78.9,64.3,30.01,SSE,158,4.0,9.0,61,0.00,,,0.00,Wunderground PWS Mod,2013-08-07 23:46:00,
2013-08-07 19:54:00,78.1,64.9,30.01,South,170,4.0,15.0,64,0.00,,,0.00,Wunderground PWS Mod,2013-08-07 23:54:00,
2013-08-07 20:04:00,77.8,64.6,30.01,SSW,195,5.0,9.0,64,0.00,,,0.00,Wunderground PWS Mod,2013-08-08 00:04:00,
2013-08-07 20:14:00,77.6,64.0,30.00,South,189,6.0,10.0,63,0.00,,,0.00,Wunderground PWS Mod,2013-08-08 00:14:00,
2013-08-07 20:18:00,77.6,64.5,30.01,SSE,158,4.0,11.0,64,0.00,,,0.00,Wunderground PWS Mod,2013-08-08 00:18:00,
2013-08-07 20:24:00,77.5,64.4,30.01,South,185,6.0,10.0,64,0.00,,,0.00,Wunderground PWS Mod,2013-08-08 00:24:00,
2013-08-07 20:34:00,77.5,64.4,30.02,SSW,210,2.0,10.0,64,0.00,,,0.00,Wunderground PWS Mod,2013-08-08 00:34:00,
2013-08-07 20:44:00,77.5,64.8,30.02,South,170,4.0,11.0,65,0.00,,,0.00,Wunderground PWS Mod,2013-08-08 00:44:00,
2013-08-07 20:46:00,77.6,64.5,30.01,SSE,158,4.0,11.0,64,0.00,,,0.00,Wunderground PWS Mod,2013-08-08 00:46:00,
2013-08-07 20:54:00,77.4,64.7,30.02,SSW,202,1.0,11.0,65,0.00,,,0.00,Wunderground PWS Mod,2013-08-08 00:54:00,
2013-08-07 21:04:00,77.7,65.0,30.02,SE,137,4.0,11.0,65,0.00,,,0.00,Wunderground PWS Mod,2013-08-08 01:04:00,
2013-08-07 21:14:00,77.6,64.9,30.03,South,174,4.0,11.0,65,0.00,,,0.00,Wunderground PWS Mod,2013-08-08 01:14:00,
2013-08-07 21:16:00,77.5,64.8,30.02,SSE,158,4.0,10.0,65,0.00,,,0.00,Wunderground PWS Mod,2013-08-08 01:16:00,
2013-08-07 21:24:00,77.5,65.2,30.03,SSE,167,4.0,11.0,66,0.00,,,0.00,Wunderground PWS Mod,2013-08-08 01:24:00,
2013-08-07 21:34:00,77.9,65.2,30.03,SSE,166,3.0,11.0,65,0.00,,,0.00,Wunderground PWS Mod,2013-08-08 01:34:00,
2013-08-07 21:44:00,77.6,64.9,30.03,South,180,6.0,11.0,65,0.00,,,0.00,Wunderground PWS Mod,2013-08-08 01:44:00,
2013-08-07 21:48:00,77.5,64.8,30.03,South,180,3.0,9.0,65,0.00,,,0.00,Wunderground PWS Mod,2013-08-08 01:48:00,
2013-08-07 21:54:00,77.3,64.6,30.03,SSW,193,2.0,11.0,65,0.00,,,0.00,Wunderground PWS Mod,2013-08-08 01:54:00,
2013-08-07 22:04:00,77.2,64.5,30.03,SSE,153,10.0,10.0,65,0.00,,,0.00,Wunderground PWS Mod,2013-08-08 02:04:00,
2013-08-07 22:14:00,77.1,64.0,30.03,South,181,4.0,10.0,64,0.00,,,0.00,Wunderground PWS Mod,2013-08-08 02:14:00,
2013-08-07 22:18:00,77.1,64.0,30.02,South,180,4.0,10.0,64,0.00,,,0.00,Wunderground PWS Mod,2013-08-08 02:18:00,
2013-08-07 22:24:00,77.1,64.4,30.03,South,178,4.0,10.0,65,0.00,,,0.00,Wunderground PWS Mod,2013-08-08 02:24:00,
2013-08-07 22:34:00,76.9,64.2,30.03,South,174,4.0,10.0,65,0.00,,,0.00,Wunderground PWS Mod,2013-08-08 02:34:00,
2013-08-07 22:44:00,77.1,64.0,30.03,SW,215,6.0,10.0,64,0.00,,,0.00,Wunderground PWS Mod,2013-08-08 02:44:00,
2013-08-07 22:46:00,77.1,64.0,30.02,South,180,4.0,10.0,64,0.00,,,0.00,Wunderground PWS Mod,2013-08-08 02:46:00,
2013-08-07 22:54:00,77.3,63.7,30.03,SSE,161,4.0,10.0,63,0.00,,,0.00,Wunderground PWS Mod,2013-08-08 02:54:00,
2013-08-07 23:04:00,77.0,63.9,30.02,South,170,5.0,10.0,64,0.00,,,0.00,Wunderground PWS Mod,2013-08-08 03:04:00,
2013-08-07 23:10:00,77.1,63.5,30.02,South,180,4.0,11.0,63,0.00,,,0.00,Wunderground PWS Mod,2013-08-08 03:10:00,
2013-08-07 23:12:00,77.1,63.5,30.02,South,180,4.0,11.0,63,0.00,,,0.00,Wunderground PWS Mod,2013-08-08 03:12:00,
2013-08-07 23:14:00,77.0,63.9,30.03,SW,229,4.0,11.0,64,0.00,,,0.00,Wunderground PWS Mod,2013-08-08 03:14:00,
2013-08-07 23:24:00,77.0,63.9,30.03,SW,220,2.0,11.0,64,0.00,,,0.00,Wunderground PWS Mod,2013-08-08 03:24:00,
2013-08-07 23:34:00,77.0,63.9,30.03,WSW,238,2.0,11.0,64,0.00,,,0.00,Wunderground PWS Mod,2013-08-08 03:34:00,
2013-08-07 23:44:00,76.8,63.2,30.03,SSW,212,5.0,11.0,63,0.00,,,0.00,Wunderground PWS Mod,2013-08-08 03:44:00,
2013-08-07 23:46:00,77.0,63.9,30.03,South,180,4.0,10.0,64,0.00,,,0.00,Wunderground PWS Mod,2013-08-08 03:46:00,
2013-08-07 23:54:00,76.3,63.2,30.02,SW,216,6.0,11.0,64,0.00,,,0.00,Wunderground PWS Mod,2013-08-08 03:54:00,